sensor_id;sensor_type;location;lat;lon;timestamp;P1;durP1;ratioP1;P2;durP2;ratioP2
12110;SDS011;6119;52.372;8.990;2023-08-07T00:00:25;9.60;;;4.43;;
12110;SDS011;6119;52.372;8.990;2023-08-07T00:03:12;7.47;;;4.80;;
12110;SDS011;6119;52.372;8.990;2023-08-07T00:06:03;7.03;;;4.73;;
12110;SDS011;6119;52.372;8.990;2023-08-07T00:08:50;8.40;;;5.03;;
12110;SDS011;6119;52.372;8.990;2023-08-07T00:11:37;10.00;;;4.97;;
12110;SDS011;6119;52.372;8.990;2023-08-07T00:14:24;8.40;;;5.10;;
12110;SDS011;6119;52.372;8.990;2023-08-07T00:17:11;7.00;;;4.93;;
12110;SDS011;6119;52.372;8.990;2023-08-07T00:19:58;8.33;;;5.63;;
12110;SDS011;6119;52.372;8.990;2023-08-07T00:22:45;10.30;;;5.97;;
12110;SDS011;6119;52.372;8.990;2023-08-07T00:25:31;9.20;;;5.17;;
12110;SDS011;6119;52.372;8.990;2023-08-07T00:28:18;9.73;;;5.47;;
12110;SDS011;6119;52.372;8.990;2023-08-07T00:31:05;8.67;;;5.10;;
12110;SDS011;6119;52.372;8.990;2023-08-07T00:33:53;7.57;;;5.67;;
12110;SDS011;6119;52.372;8.990;2023-08-07T00:36:41;11.13;;;5.43;;
12110;SDS011;6119;52.372;8.990;2023-08-07T00:39:27;9.63;;;5.57;;
12110;SDS011;6119;52.372;8.990;2023-08-07T00:42:14;9.20;;;5.40;;
12110;SDS011;6119;52.372;8.990;2023-08-07T00:45:00;6.83;;;5.03;;
12110;SDS011;6119;52.372;8.990;2023-08-07T00:47:47;9.00;;;5.63;;
12110;SDS011;6119;52.372;8.990;2023-08-07T00:50:35;8.03;;;5.10;;
12110;SDS011;6119;52.372;8.990;2023-08-07T00:53:31;7.43;;;5.20;;
12110;SDS011;6119;52.372;8.990;2023-08-07T00:56:18;9.70;;;5.47;;
12110;SDS011;6119;52.372;8.990;2023-08-07T00:59:05;8.23;;;6.20;;
12110;SDS011;6119;52.372;8.990;2023-08-07T01:01:52;8.63;;;5.60;;
12110;SDS011;6119;52.372;8.990;2023-08-07T01:04:39;8.17;;;5.90;;
12110;SDS011;6119;52.372;8.990;2023-08-07T01:07:27;10.33;;;5.57;;
12110;SDS011;6119;52.372;8.990;2023-08-07T01:10:14;7.93;;;5.87;;
12110;SDS011;6119;52.372;8.990;2023-08-07T01:13:03;8.43;;;6.00;;
12110;SDS011;6119;52.372;8.990;2023-08-07T01:15:55;7.97;;;5.17;;
12110;SDS011;6119;52.372;8.990;2023-08-07T01:18:47;10.17;;;5.43;;
12110;SDS011;6119;52.372;8.990;2023-08-07T01:21:35;7.73;;;5.13;;
12110;SDS011;6119;52.372;8.990;2023-08-07T01:24:24;9.37;;;5.43;;
12110;SDS011;6119;52.372;8.990;2023-08-07T01:27:16;8.77;;;5.10;;
12110;SDS011;6119;52.372;8.990;2023-08-07T01:30:12;6.40;;;5.07;;
12110;SDS011;6119;52.372;8.990;2023-08-07T01:33:09;13.13;;;5.43;;
12110;SDS011;6119;52.372;8.990;2023-08-07T01:36:01;5.87;;;5.20;;
12110;SDS011;6119;52.372;8.990;2023-08-07T01:38:52;6.17;;;4.90;;
12110;SDS011;6119;52.372;8.990;2023-08-07T01:41:41;7.43;;;4.67;;
12110;SDS011;6119;52.372;8.990;2023-08-07T01:44:28;5.20;;;4.50;;
12110;SDS011;6119;52.372;8.990;2023-08-07T01:47:15;7.67;;;5.13;;
12110;SDS011;6119;52.372;8.990;2023-08-07T01:50:02;5.80;;;4.90;;
12110;SDS011;6119;52.372;8.990;2023-08-07T01:52:49;7.30;;;4.77;;
12110;SDS011;6119;52.372;8.990;2023-08-07T01:55:36;8.63;;;4.97;;
12110;SDS011;6119;52.372;8.990;2023-08-07T01:58:24;6.97;;;4.30;;
12110;SDS011;6119;52.372;8.990;2023-08-07T02:01:11;10.20;;;4.93;;
12110;SDS011;6119;52.372;8.990;2023-08-07T02:03:58;7.63;;;4.87;;
12110;SDS011;6119;52.372;8.990;2023-08-07T02:06:44;7.10;;;4.70;;
12110;SDS011;6119;52.372;8.990;2023-08-07T02:09:31;7.87;;;4.97;;
12110;SDS011;6119;52.372;8.990;2023-08-07T02:12:17;8.07;;;5.10;;
12110;SDS011;6119;52.372;8.990;2023-08-07T02:15:06;8.70;;;5.67;;
12110;SDS011;6119;52.372;8.990;2023-08-07T02:17:53;8.80;;;5.23;;
12110;SDS011;6119;52.372;8.990;2023-08-07T02:20:40;11.00;;;5.60;;
12110;SDS011;6119;52.372;8.990;2023-08-07T02:23:26;10.30;;;6.37;;
12110;SDS011;6119;52.372;8.990;2023-08-07T02:26:14;9.30;;;6.30;;
12110;SDS011;6119;52.372;8.990;2023-08-07T02:29:00;9.17;;;5.60;;
12110;SDS011;6119;52.372;8.990;2023-08-07T02:31:50;10.63;;;5.90;;
12110;SDS011;6119;52.372;8.990;2023-08-07T02:34:37;8.90;;;5.73;;
12110;SDS011;6119;52.372;8.990;2023-08-07T02:37:24;12.37;;;5.90;;
12110;SDS011;6119;52.372;8.990;2023-08-07T02:40:11;8.27;;;5.83;;
12110;SDS011;6119;52.372;8.990;2023-08-07T02:43:00;9.33;;;6.60;;
12110;SDS011;6119;52.372;8.990;2023-08-07T02:45:46;8.43;;;5.77;;
12110;SDS011;6119;52.372;8.990;2023-08-07T02:48:34;11.33;;;6.27;;
12110;SDS011;6119;52.372;8.990;2023-08-07T02:51:21;9.03;;;6.10;;
12110;SDS011;6119;52.372;8.990;2023-08-07T02:54:08;12.00;;;7.13;;
12110;SDS011;6119;52.372;8.990;2023-08-07T02:56:54;7.10;;;5.87;;
12110;SDS011;6119;52.372;8.990;2023-08-07T02:59:41;8.67;;;6.37;;
12110;SDS011;6119;52.372;8.990;2023-08-07T03:02:28;10.60;;;6.23;;
12110;SDS011;6119;52.372;8.990;2023-08-07T03:05:16;8.27;;;5.97;;
12110;SDS011;6119;52.372;8.990;2023-08-07T03:08:03;14.47;;;6.73;;
12110;SDS011;6119;52.372;8.990;2023-08-07T03:10:51;8.20;;;5.97;;
12110;SDS011;6119;52.372;8.990;2023-08-07T03:13:40;7.77;;;6.07;;
12110;SDS011;6119;52.372;8.990;2023-08-07T03:16:29;9.30;;;6.23;;
12110;SDS011;6119;52.372;8.990;2023-08-07T03:19:15;10.20;;;6.07;;
12110;SDS011;6119;52.372;8.990;2023-08-07T03:22:06;10.37;;;6.57;;
12110;SDS011;6119;52.372;8.990;2023-08-07T03:24:52;9.90;;;6.73;;
12110;SDS011;6119;52.372;8.990;2023-08-07T03:27:39;9.50;;;6.83;;
12110;SDS011;6119;52.372;8.990;2023-08-07T03:30:26;11.00;;;6.17;;
12110;SDS011;6119;52.372;8.990;2023-08-07T03:33:12;8.50;;;6.10;;
12110;SDS011;6119;52.372;8.990;2023-08-07T03:35:59;9.87;;;6.23;;
12110;SDS011;6119;52.372;8.990;2023-08-07T03:38:47;9.90;;;6.87;;
12110;SDS011;6119;52.372;8.990;2023-08-07T03:41:34;10.53;;;6.20;;
12110;SDS011;6119;52.372;8.990;2023-08-07T03:44:20;11.80;;;5.90;;
12110;SDS011;6119;52.372;8.990;2023-08-07T03:47:07;10.30;;;6.50;;
12110;SDS011;6119;52.372;8.990;2023-08-07T03:49:53;8.80;;;6.47;;
12110;SDS011;6119;52.372;8.990;2023-08-07T03:52:40;8.00;;;6.30;;
12110;SDS011;6119;52.372;8.990;2023-08-07T03:55:28;10.43;;;6.23;;
12110;SDS011;6119;52.372;8.990;2023-08-07T03:58:14;9.80;;;6.43;;
12110;SDS011;6119;52.372;8.990;2023-08-07T04:01:01;9.83;;;6.83;;
12110;SDS011;6119;52.372;8.990;2023-08-07T04:03:48;11.53;;;6.57;;
12110;SDS011;6119;52.372;8.990;2023-08-07T04:06:35;8.80;;;6.40;;
12110;SDS011;6119;52.372;8.990;2023-08-07T04:09:22;10.77;;;7.10;;
12110;SDS011;6119;52.372;8.990;2023-08-07T04:12:10;11.40;;;6.13;;
12110;SDS011;6119;52.372;8.990;2023-08-07T04:14:57;6.90;;;5.67;;
12110;SDS011;6119;52.372;8.990;2023-08-07T04:17:43;12.17;;;6.20;;
12110;SDS011;6119;52.372;8.990;2023-08-07T04:20:31;10.20;;;5.93;;
12110;SDS011;6119;52.372;8.990;2023-08-07T04:23:17;10.03;;;6.03;;
12110;SDS011;6119;52.372;8.990;2023-08-07T04:26:04;8.47;;;5.87;;
12110;SDS011;6119;52.372;8.990;2023-08-07T04:28:52;8.23;;;5.33;;
12110;SDS011;6119;52.372;8.990;2023-08-07T04:31:38;7.53;;;5.97;;
12110;SDS011;6119;52.372;8.990;2023-08-07T04:34:25;7.30;;;5.37;;
12110;SDS011;6119;52.372;8.990;2023-08-07T04:37:12;9.93;;;5.43;;
12110;SDS011;6119;52.372;8.990;2023-08-07T04:39:58;6.73;;;4.73;;
12110;SDS011;6119;52.372;8.990;2023-08-07T04:42:48;8.90;;;5.67;;
12110;SDS011;6119;52.372;8.990;2023-08-07T04:45:37;8.43;;;5.40;;
12110;SDS011;6119;52.372;8.990;2023-08-07T04:48:24;8.23;;;5.73;;
12110;SDS011;6119;52.372;8.990;2023-08-07T04:51:10;8.33;;;5.37;;
12110;SDS011;6119;52.372;8.990;2023-08-07T04:53:57;8.17;;;5.50;;
12110;SDS011;6119;52.372;8.990;2023-08-07T04:56:44;11.70;;;5.07;;
12110;SDS011;6119;52.372;8.990;2023-08-07T04:59:31;8.83;;;4.80;;
12110;SDS011;6119;52.372;8.990;2023-08-07T05:02:19;6.93;;;5.17;;
12110;SDS011;6119;52.372;8.990;2023-08-07T05:05:06;8.97;;;5.43;;
12110;SDS011;6119;52.372;8.990;2023-08-07T05:07:54;7.77;;;5.30;;
12110;SDS011;6119;52.372;8.990;2023-08-07T05:10:41;7.90;;;4.80;;
12110;SDS011;6119;52.372;8.990;2023-08-07T05:13:28;7.00;;;4.60;;
12110;SDS011;6119;52.372;8.990;2023-08-07T05:16:14;12.10;;;5.30;;
12110;SDS011;6119;52.372;8.990;2023-08-07T05:19:05;7.27;;;4.37;;
12110;SDS011;6119;52.372;8.990;2023-08-07T05:21:52;5.67;;;4.20;;
12110;SDS011;6119;52.372;8.990;2023-08-07T05:24:39;7.73;;;4.30;;
12110;SDS011;6119;52.372;8.990;2023-08-07T05:27:26;7.30;;;4.00;;
12110;SDS011;6119;52.372;8.990;2023-08-07T05:30:13;7.20;;;4.23;;
12110;SDS011;6119;52.372;8.990;2023-08-07T05:33:00;7.60;;;4.20;;
12110;SDS011;6119;52.372;8.990;2023-08-07T05:35:48;7.00;;;3.47;;
12110;SDS011;6119;52.372;8.990;2023-08-07T05:38:37;4.03;;;3.63;;
12110;SDS011;6119;52.372;8.990;2023-08-07T05:41:24;4.83;;;3.27;;
12110;SDS011;6119;52.372;8.990;2023-08-07T05:44:10;7.93;;;3.77;;
12110;SDS011;6119;52.372;8.990;2023-08-07T05:46:57;3.70;;;3.37;;
12110;SDS011;6119;52.372;8.990;2023-08-07T05:49:43;4.97;;;3.20;;
12110;SDS011;6119;52.372;8.990;2023-08-07T05:52:31;8.17;;;3.37;;
12110;SDS011;6119;52.372;8.990;2023-08-07T05:55:18;4.93;;;3.50;;
12110;SDS011;6119;52.372;8.990;2023-08-07T05:58:05;4.63;;;3.30;;
12110;SDS011;6119;52.372;8.990;2023-08-07T06:00:52;5.97;;;3.50;;
12110;SDS011;6119;52.372;8.990;2023-08-07T06:03:39;4.33;;;3.37;;
12110;SDS011;6119;52.372;8.990;2023-08-07T06:06:26;5.83;;;3.33;;
12110;SDS011;6119;52.372;8.990;2023-08-07T06:09:15;4.13;;;3.33;;
12110;SDS011;6119;52.372;8.990;2023-08-07T06:12:02;4.87;;;3.33;;
12110;SDS011;6119;52.372;8.990;2023-08-07T06:14:49;5.03;;;3.53;;
12110;SDS011;6119;52.372;8.990;2023-08-07T06:17:36;4.50;;;3.47;;
12110;SDS011;6119;52.372;8.990;2023-08-07T06:20:24;7.17;;;3.87;;
12110;SDS011;6119;52.372;8.990;2023-08-07T06:23:11;4.33;;;3.80;;
12110;SDS011;6119;52.372;8.990;2023-08-07T06:25:58;4.57;;;3.70;;
12110;SDS011;6119;52.372;8.990;2023-08-07T06:28:48;6.67;;;3.77;;
12110;SDS011;6119;52.372;8.990;2023-08-07T06:31:35;8.57;;;3.93;;
12110;SDS011;6119;52.372;8.990;2023-08-07T06:34:21;7.37;;;3.63;;
12110;SDS011;6119;52.372;8.990;2023-08-07T06:37:08;6.70;;;4.27;;
12110;SDS011;6119;52.372;8.990;2023-08-07T06:39:54;7.40;;;3.87;;
12110;SDS011;6119;52.372;8.990;2023-08-07T06:42:42;5.33;;;3.77;;
12110;SDS011;6119;52.372;8.990;2023-08-07T06:45:29;5.73;;;3.30;;
12110;SDS011;6119;52.372;8.990;2023-08-07T06:48:16;3.30;;;3.00;;
12110;SDS011;6119;52.372;8.990;2023-08-07T06:51:03;7.93;;;4.00;;
12110;SDS011;6119;52.372;8.990;2023-08-07T06:53:50;4.57;;;3.27;;
12110;SDS011;6119;52.372;8.990;2023-08-07T06:56:36;5.77;;;3.60;;
12110;SDS011;6119;52.372;8.990;2023-08-07T06:59:27;8.47;;;3.30;;
12110;SDS011;6119;52.372;8.990;2023-08-07T07:02:13;3.80;;;3.50;;
12110;SDS011;6119;52.372;8.990;2023-08-07T07:05:01;8.83;;;3.80;;
12110;SDS011;6119;52.372;8.990;2023-08-07T07:07:48;6.97;;;3.20;;
12110;SDS011;6119;52.372;8.990;2023-08-07T07:10:34;6.77;;;3.40;;
12110;SDS011;6119;52.372;8.990;2023-08-07T07:13:21;7.27;;;3.13;;
12110;SDS011;6119;52.372;8.990;2023-08-07T07:16:09;3.70;;;3.37;;
12110;SDS011;6119;52.372;8.990;2023-08-07T07:18:57;8.47;;;4.30;;
12110;SDS011;6119;52.372;8.990;2023-08-07T07:21:45;5.30;;;4.10;;
12110;SDS011;6119;52.372;8.990;2023-08-07T07:24:31;7.00;;;3.50;;
12110;SDS011;6119;52.372;8.990;2023-08-07T07:27:18;5.53;;;4.10;;
12110;SDS011;6119;52.372;8.990;2023-08-07T07:30:07;6.63;;;3.60;;
12110;SDS011;6119;52.372;8.990;2023-08-07T07:32:56;7.70;;;3.10;;
12110;SDS011;6119;52.372;8.990;2023-08-07T07:35:43;4.47;;;3.80;;
12110;SDS011;6119;52.372;8.990;2023-08-07T07:38:29;3.03;;;2.40;;
12110;SDS011;6119;52.372;8.990;2023-08-07T07:41:16;4.50;;;2.83;;
12110;SDS011;6119;52.372;8.990;2023-08-07T07:44:03;4.37;;;2.77;;
12110;SDS011;6119;52.372;8.990;2023-08-07T07:46:50;8.13;;;2.83;;
12110;SDS011;6119;52.372;8.990;2023-08-07T07:49:38;6.77;;;2.60;;
12110;SDS011;6119;52.372;8.990;2023-08-07T07:52:25;5.93;;;2.70;;
12110;SDS011;6119;52.372;8.990;2023-08-07T07:55:11;3.27;;;2.40;;
12110;SDS011;6119;52.372;8.990;2023-08-07T07:57:59;5.70;;;2.47;;
12110;SDS011;6119;52.372;8.990;2023-08-07T08:00:45;5.27;;;2.70;;
12110;SDS011;6119;52.372;8.990;2023-08-07T08:03:32;6.03;;;2.60;;
12110;SDS011;6119;52.372;8.990;2023-08-07T08:06:21;5.80;;;2.37;;
12110;SDS011;6119;52.372;8.990;2023-08-07T08:09:08;6.03;;;2.23;;
12110;SDS011;6119;52.372;8.990;2023-08-07T08:11:55;3.67;;;2.47;;
12110;SDS011;6119;52.372;8.990;2023-08-07T08:14:42;5.63;;;2.40;;
12110;SDS011;6119;52.372;8.990;2023-08-07T08:17:40;6.67;;;2.40;;
12110;SDS011;6119;52.372;8.990;2023-08-07T08:20:26;4.27;;;2.10;;
12110;SDS011;6119;52.372;8.990;2023-08-07T08:23:16;3.63;;;2.00;;
12110;SDS011;6119;52.372;8.990;2023-08-07T08:26:02;5.70;;;2.03;;
12110;SDS011;6119;52.372;8.990;2023-08-07T08:28:50;4.27;;;2.03;;
12110;SDS011;6119;52.372;8.990;2023-08-07T08:31:36;3.77;;;1.70;;
12110;SDS011;6119;52.372;8.990;2023-08-07T08:34:23;2.17;;;1.60;;
12110;SDS011;6119;52.372;8.990;2023-08-07T08:37:11;4.37;;;2.00;;
12110;SDS011;6119;52.372;8.990;2023-08-07T08:39:59;3.90;;;1.90;;
12110;SDS011;6119;52.372;8.990;2023-08-07T08:42:46;2.03;;;1.40;;
12110;SDS011;6119;52.372;8.990;2023-08-07T08:45:33;3.73;;;1.70;;
12110;SDS011;6119;52.372;8.990;2023-08-07T08:48:22;2.50;;;1.53;;
12110;SDS011;6119;52.372;8.990;2023-08-07T08:51:10;3.43;;;1.70;;
12110;SDS011;6119;52.372;8.990;2023-08-07T08:53:57;5.67;;;1.80;;
12110;SDS011;6119;52.372;8.990;2023-08-07T08:56:48;4.33;;;2.17;;
12110;SDS011;6119;52.372;8.990;2023-08-07T08:59:35;5.27;;;3.13;;
12110;SDS011;6119;52.372;8.990;2023-08-07T09:02:22;4.07;;;2.40;;
12110;SDS011;6119;52.372;8.990;2023-08-07T09:05:09;8.50;;;2.10;;
12110;SDS011;6119;52.372;8.990;2023-08-07T09:07:55;4.80;;;2.13;;
12110;SDS011;6119;52.372;8.990;2023-08-07T09:10:43;5.43;;;2.20;;
12110;SDS011;6119;52.372;8.990;2023-08-07T09:13:31;9.70;;;2.70;;
12110;SDS011;6119;52.372;8.990;2023-08-07T09:16:22;3.63;;;2.20;;
12110;SDS011;6119;52.372;8.990;2023-08-07T09:19:10;7.97;;;2.67;;
12110;SDS011;6119;52.372;8.990;2023-08-07T09:21:56;5.53;;;2.57;;
12110;SDS011;6119;52.372;8.990;2023-08-07T09:24:43;6.33;;;1.77;;
12110;SDS011;6119;52.372;8.990;2023-08-07T09:27:30;7.13;;;1.87;;
12110;SDS011;6119;52.372;8.990;2023-08-07T09:30:19;9.03;;;2.07;;
12110;SDS011;6119;52.372;8.990;2023-08-07T09:33:06;5.10;;;1.80;;
12110;SDS011;6119;52.372;8.990;2023-08-07T09:35:52;5.03;;;1.60;;
12110;SDS011;6119;52.372;8.990;2023-08-07T09:38:43;8.73;;;2.40;;
12110;SDS011;6119;52.372;8.990;2023-08-07T09:41:30;4.97;;;1.80;;
12110;SDS011;6119;52.372;8.990;2023-08-07T09:44:17;4.13;;;1.83;;
12110;SDS011;6119;52.372;8.990;2023-08-07T09:47:12;4.27;;;1.80;;
12110;SDS011;6119;52.372;8.990;2023-08-07T09:49:59;7.40;;;2.30;;
12110;SDS011;6119;52.372;8.990;2023-08-07T09:52:46;7.53;;;2.33;;
12110;SDS011;6119;52.372;8.990;2023-08-07T09:55:34;5.43;;;2.07;;
12110;SDS011;6119;52.372;8.990;2023-08-07T09:58:20;8.13;;;1.50;;
12110;SDS011;6119;52.372;8.990;2023-08-07T10:01:07;2.70;;;1.40;;
12110;SDS011;6119;52.372;8.990;2023-08-07T10:03:56;8.03;;;2.07;;
12110;SDS011;6119;52.372;8.990;2023-08-07T10:06:44;4.13;;;1.67;;
12110;SDS011;6119;52.372;8.990;2023-08-07T10:09:32;2.80;;;1.80;;
12110;SDS011;6119;52.372;8.990;2023-08-07T10:12:19;3.70;;;1.57;;
12110;SDS011;6119;52.372;8.990;2023-08-07T10:15:06;7.30;;;2.90;;
12110;SDS011;6119;52.372;8.990;2023-08-07T10:17:54;6.40;;;2.23;;
12110;SDS011;6119;52.372;8.990;2023-08-07T10:20:42;5.57;;;2.57;;
12110;SDS011;6119;52.372;8.990;2023-08-07T10:23:29;5.80;;;2.30;;
12110;SDS011;6119;52.372;8.990;2023-08-07T10:26:19;7.70;;;2.20;;
12110;SDS011;6119;52.372;8.990;2023-08-07T10:29:09;11.23;;;2.40;;
12110;SDS011;6119;52.372;8.990;2023-08-07T10:31:58;9.57;;;2.67;;
12110;SDS011;6119;52.372;8.990;2023-08-07T10:34:47;8.40;;;2.63;;
12110;SDS011;6119;52.372;8.990;2023-08-07T10:37:40;4.87;;;1.97;;
12110;SDS011;6119;52.372;8.990;2023-08-07T10:40:28;8.77;;;2.33;;
12110;SDS011;6119;52.372;8.990;2023-08-07T10:43:18;5.53;;;2.10;;
12110;SDS011;6119;52.372;8.990;2023-08-07T10:46:05;8.33;;;2.30;;
12110;SDS011;6119;52.372;8.990;2023-08-07T10:48:54;5.67;;;2.17;;
12110;SDS011;6119;52.372;8.990;2023-08-07T10:51:42;7.77;;;2.13;;
12110;SDS011;6119;52.372;8.990;2023-08-07T10:54:37;5.33;;;1.90;;
12110;SDS011;6119;52.372;8.990;2023-08-07T10:57:28;2.73;;;1.83;;
12110;SDS011;6119;52.372;8.990;2023-08-07T11:00:21;5.37;;;2.13;;
12110;SDS011;6119;52.372;8.990;2023-08-07T11:03:12;6.80;;;1.93;;
12110;SDS011;6119;52.372;8.990;2023-08-07T11:06:08;5.23;;;2.20;;
12110;SDS011;6119;52.372;8.990;2023-08-07T11:08:55;5.23;;;1.73;;
12110;SDS011;6119;52.372;8.990;2023-08-07T11:11:44;6.83;;;2.03;;
12110;SDS011;6119;52.372;8.990;2023-08-07T11:14:32;3.97;;;1.87;;
12110;SDS011;6119;52.372;8.990;2023-08-07T11:17:19;5.27;;;1.87;;
12110;SDS011;6119;52.372;8.990;2023-08-07T11:20:06;8.40;;;1.97;;
12110;SDS011;6119;52.372;8.990;2023-08-07T11:22:54;5.53;;;1.90;;
12110;SDS011;6119;52.372;8.990;2023-08-07T11:25:41;4.23;;;2.00;;
12110;SDS011;6119;52.372;8.990;2023-08-07T11:28:29;4.20;;;2.10;;
12110;SDS011;6119;52.372;8.990;2023-08-07T11:31:16;8.33;;;2.10;;
12110;SDS011;6119;52.372;8.990;2023-08-07T11:34:04;6.83;;;2.33;;
12110;SDS011;6119;52.372;8.990;2023-08-07T11:36:50;7.77;;;2.40;;
12110;SDS011;6119;52.372;8.990;2023-08-07T11:39:41;4.90;;;2.40;;
12110;SDS011;6119;52.372;8.990;2023-08-07T11:42:28;5.53;;;2.30;;
12110;SDS011;6119;52.372;8.990;2023-08-07T11:45:16;9.43;;;2.97;;
12110;SDS011;6119;52.372;8.990;2023-08-07T11:48:03;4.73;;;1.93;;
12110;SDS011;6119;52.372;8.990;2023-08-07T11:50:51;6.17;;;2.60;;
12110;SDS011;6119;52.372;8.990;2023-08-07T11:53:39;5.73;;;2.03;;
12110;SDS011;6119;52.372;8.990;2023-08-07T11:56:27;8.33;;;2.43;;
12110;SDS011;6119;52.372;8.990;2023-08-07T11:59:16;7.83;;;1.90;;
12110;SDS011;6119;52.372;8.990;2023-08-07T12:02:10;5.80;;;2.10;;
12110;SDS011;6119;52.372;8.990;2023-08-07T12:04:57;5.70;;;2.23;;
12110;SDS011;6119;52.372;8.990;2023-08-07T12:07:46;5.53;;;2.43;;
12110;SDS011;6119;52.372;8.990;2023-08-07T12:10:34;6.17;;;2.57;;
12110;SDS011;6119;52.372;8.990;2023-08-07T12:13:23;4.53;;;2.50;;
12110;SDS011;6119;52.372;8.990;2023-08-07T12:16:12;6.37;;;2.10;;
12110;SDS011;6119;52.372;8.990;2023-08-07T12:19:03;6.13;;;2.87;;
12110;SDS011;6119;52.372;8.990;2023-08-07T12:21:50;7.07;;;2.20;;
12110;SDS011;6119;52.372;8.990;2023-08-07T12:24:36;7.33;;;2.37;;
12110;SDS011;6119;52.372;8.990;2023-08-07T12:27:23;8.47;;;2.37;;
12110;SDS011;6119;52.372;8.990;2023-08-07T12:30:11;9.40;;;2.60;;
12110;SDS011;6119;52.372;8.990;2023-08-07T12:32:59;4.73;;;2.30;;
12110;SDS011;6119;52.372;8.990;2023-08-07T12:35:49;7.00;;;2.60;;
12110;SDS011;6119;52.372;8.990;2023-08-07T12:38:36;4.63;;;2.00;;
12110;SDS011;6119;52.372;8.990;2023-08-07T12:41:22;6.67;;;2.20;;
12110;SDS011;6119;52.372;8.990;2023-08-07T12:44:12;9.73;;;2.47;;
12110;SDS011;6119;52.372;8.990;2023-08-07T12:46:59;6.97;;;2.07;;
12110;SDS011;6119;52.372;8.990;2023-08-07T12:49:46;9.57;;;2.17;;
12110;SDS011;6119;52.372;8.990;2023-08-07T12:52:35;9.70;;;2.10;;
12110;SDS011;6119;52.372;8.990;2023-08-07T12:55:22;7.93;;;2.20;;
12110;SDS011;6119;52.372;8.990;2023-08-07T12:58:09;3.73;;;1.93;;
12110;SDS011;6119;52.372;8.990;2023-08-07T13:00:55;4.80;;;1.93;;
12110;SDS011;6119;52.372;8.990;2023-08-07T13:03:42;6.80;;;2.40;;
12110;SDS011;6119;52.372;8.990;2023-08-07T13:06:29;8.27;;;2.50;;
12110;SDS011;6119;52.372;8.990;2023-08-07T13:09:17;5.93;;;2.20;;
12110;SDS011;6119;52.372;8.990;2023-08-07T13:12:05;3.73;;;1.90;;
12110;SDS011;6119;52.372;8.990;2023-08-07T13:14:53;7.37;;;1.93;;
12110;SDS011;6119;52.372;8.990;2023-08-07T13:17:39;7.93;;;2.33;;
12110;SDS011;6119;52.372;8.990;2023-08-07T13:20:27;5.47;;;1.93;;
12110;SDS011;6119;52.372;8.990;2023-08-07T13:23:18;6.67;;;2.13;;
12110;SDS011;6119;52.372;8.990;2023-08-07T13:26:06;5.93;;;2.03;;
12110;SDS011;6119;52.372;8.990;2023-08-07T13:28:53;8.53;;;2.20;;
12110;SDS011;6119;52.372;8.990;2023-08-07T13:31:39;7.80;;;2.20;;
12110;SDS011;6119;52.372;8.990;2023-08-07T13:34:28;5.87;;;2.37;;
12110;SDS011;6119;52.372;8.990;2023-08-07T13:37:15;3.40;;;1.93;;
12110;SDS011;6119;52.372;8.990;2023-08-07T13:40:02;5.03;;;1.80;;
12110;SDS011;6119;52.372;8.990;2023-08-07T13:42:51;6.07;;;2.07;;
12110;SDS011;6119;52.372;8.990;2023-08-07T13:45:38;5.67;;;2.17;;
12110;SDS011;6119;52.372;8.990;2023-08-07T13:48:25;4.17;;;1.90;;
12110;SDS011;6119;52.372;8.990;2023-08-07T13:51:13;6.23;;;2.00;;
12110;SDS011;6119;52.372;8.990;2023-08-07T13:54:00;6.10;;;2.37;;
12110;SDS011;6119;52.372;8.990;2023-08-07T13:56:47;4.03;;;1.93;;
12110;SDS011;6119;52.372;8.990;2023-08-07T13:59:35;7.20;;;2.23;;
12110;SDS011;6119;52.372;8.990;2023-08-07T14:02:21;7.70;;;2.13;;
12110;SDS011;6119;52.372;8.990;2023-08-07T14:05:08;3.93;;;1.90;;
12110;SDS011;6119;52.372;8.990;2023-08-07T14:07:56;4.33;;;2.13;;
12110;SDS011;6119;52.372;8.990;2023-08-07T14:10:44;4.30;;;2.23;;
12110;SDS011;6119;52.372;8.990;2023-08-07T14:13:30;5.23;;;1.93;;
12110;SDS011;6119;52.372;8.990;2023-08-07T14:16:18;3.13;;;2.03;;
12110;SDS011;6119;52.372;8.990;2023-08-07T14:19:07;8.60;;;2.30;;
12110;SDS011;6119;52.372;8.990;2023-08-07T14:21:53;6.73;;;2.07;;
12110;SDS011;6119;52.372;8.990;2023-08-07T14:24:40;6.97;;;1.93;;
12110;SDS011;6119;52.372;8.990;2023-08-07T14:27:26;3.20;;;1.70;;
12110;SDS011;6119;52.372;8.990;2023-08-07T14:30:13;3.03;;;1.73;;
12110;SDS011;6119;52.372;8.990;2023-08-07T14:33:01;2.07;;;1.63;;
12110;SDS011;6119;52.372;8.990;2023-08-07T14:35:48;6.70;;;2.10;;
12110;SDS011;6119;52.372;8.990;2023-08-07T14:38:34;5.03;;;1.80;;
12110;SDS011;6119;52.372;8.990;2023-08-07T14:41:21;5.70;;;1.70;;
12110;SDS011;6119;52.372;8.990;2023-08-07T14:44:08;4.27;;;1.67;;
12110;SDS011;6119;52.372;8.990;2023-08-07T14:46:55;5.67;;;1.77;;
12110;SDS011;6119;52.372;8.990;2023-08-07T14:49:43;9.93;;;2.17;;
12110;SDS011;6119;52.372;8.990;2023-08-07T14:52:29;3.73;;;1.50;;
12110;SDS011;6119;52.372;8.990;2023-08-07T14:55:16;4.63;;;2.00;;
12110;SDS011;6119;52.372;8.990;2023-08-07T14:58:03;4.27;;;1.90;;
12110;SDS011;6119;52.372;8.990;2023-08-07T15:00:53;4.50;;;2.07;;
12110;SDS011;6119;52.372;8.990;2023-08-07T15:03:40;4.87;;;1.90;;
12110;SDS011;6119;52.372;8.990;2023-08-07T15:06:28;7.03;;;1.97;;
12110;SDS011;6119;52.372;8.990;2023-08-07T15:09:18;2.03;;;1.60;;
12110;SDS011;6119;52.372;8.990;2023-08-07T15:12:05;7.47;;;2.10;;
12110;SDS011;6119;52.372;8.990;2023-08-07T15:14:53;3.83;;;1.80;;
12110;SDS011;6119;52.372;8.990;2023-08-07T15:17:40;4.13;;;1.63;;
12110;SDS011;6119;52.372;8.990;2023-08-07T15:20:26;5.80;;;1.90;;
12110;SDS011;6119;52.372;8.990;2023-08-07T15:23:15;2.40;;;1.30;;
12110;SDS011;6119;52.372;8.990;2023-08-07T15:26:02;1.80;;;1.53;;
12110;SDS011;6119;52.372;8.990;2023-08-07T15:28:48;3.07;;;1.70;;
12110;SDS011;6119;52.372;8.990;2023-08-07T15:31:35;2.97;;;1.70;;
12110;SDS011;6119;52.372;8.990;2023-08-07T15:34:22;4.10;;;1.50;;
12110;SDS011;6119;52.372;8.990;2023-08-07T15:37:09;4.17;;;1.40;;
12110;SDS011;6119;52.372;8.990;2023-08-07T15:39:57;2.67;;;1.50;;
12110;SDS011;6119;52.372;8.990;2023-08-07T15:42:44;2.80;;;1.70;;
12110;SDS011;6119;52.372;8.990;2023-08-07T15:45:31;3.90;;;1.43;;
12110;SDS011;6119;52.372;8.990;2023-08-07T15:48:18;5.17;;;1.70;;
12110;SDS011;6119;52.372;8.990;2023-08-07T15:51:04;2.00;;;1.50;;
12110;SDS011;6119;52.372;8.990;2023-08-07T15:53:51;3.27;;;1.50;;
12110;SDS011;6119;52.372;8.990;2023-08-07T15:56:39;3.40;;;1.73;;
12110;SDS011;6119;52.372;8.990;2023-08-07T15:59:26;4.33;;;1.50;;
12110;SDS011;6119;52.372;8.990;2023-08-07T16:02:13;3.77;;;1.73;;
12110;SDS011;6119;52.372;8.990;2023-08-07T16:04:59;2.87;;;1.33;;
12110;SDS011;6119;52.372;8.990;2023-08-07T16:07:46;2.60;;;1.53;;
12110;SDS011;6119;52.372;8.990;2023-08-07T16:10:34;3.87;;;1.80;;
12110;SDS011;6119;52.372;8.990;2023-08-07T16:13:23;4.07;;;1.50;;
12110;SDS011;6119;52.372;8.990;2023-08-07T16:16:09;7.30;;;1.90;;
12110;SDS011;6119;52.372;8.990;2023-08-07T16:18:56;3.53;;;1.73;;
12110;SDS011;6119;52.372;8.990;2023-08-07T16:21:42;2.20;;;1.37;;
12110;SDS011;6119;52.372;8.990;2023-08-07T16:24:29;1.93;;;1.50;;
12110;SDS011;6119;52.372;8.990;2023-08-07T16:27:16;4.37;;;1.80;;
12110;SDS011;6119;52.372;8.990;2023-08-07T16:30:04;3.70;;;1.53;;
12110;SDS011;6119;52.372;8.990;2023-08-07T16:32:52;8.57;;;2.33;;
12110;SDS011;6119;52.372;8.990;2023-08-07T16:35:39;5.00;;;1.83;;
12110;SDS011;6119;52.372;8.990;2023-08-07T16:38:25;3.23;;;1.80;;
12110;SDS011;6119;52.372;8.990;2023-08-07T16:41:12;3.77;;;2.10;;
12110;SDS011;6119;52.372;8.990;2023-08-07T16:43:59;4.40;;;1.73;;
12110;SDS011;6119;52.372;8.990;2023-08-07T16:46:47;3.83;;;2.17;;
12110;SDS011;6119;52.372;8.990;2023-08-07T16:49:34;3.17;;;1.90;;
12110;SDS011;6119;52.372;8.990;2023-08-07T16:52:21;4.70;;;2.43;;
12110;SDS011;6119;52.372;8.990;2023-08-07T16:55:08;6.80;;;3.37;;
12110;SDS011;6119;52.372;8.990;2023-08-07T16:57:54;2.37;;;1.73;;
12110;SDS011;6119;52.372;8.990;2023-08-07T17:00:41;3.90;;;2.30;;
12110;SDS011;6119;52.372;8.990;2023-08-07T17:03:29;6.83;;;2.23;;